Nearby METAR Reports

 

KNUQ - Moffett Nas/Mtn, California, USA
Distance from station: N 9mi, 14km
Updated: Sun, 22-Jul-2018 3:56pm PDT
Clear
Clear
 Wind from NNW
Wind: NNW 13 mph , 20 km/h, Gust: 22 mph , 35 km/h
Temperature: 72°F , 22°C
Dew Point: 61°F , 16°C
Humidity: 69%
Barometer: 30.06 inHg , 1017.9 hPa
Clouds: Clear
Visibility: 10 miles , 16 km
2018/07/22 22:56 KNUQ 222256Z 34011G19KT 10SM CLR 22/16 A3006 RMK AO2 SLP181 T02170156
KSJC - San Jose, California, USA
Distance from station: NE 9mi, 14km
Updated: Sun, 22-Jul-2018 3:53pm PDT
Few Clouds
Few Clouds
 Wind from WNW
Wind: WNW 14 mph , 22 km/h
Temperature: 81°F , 27°C
Heat Index: 82°F , 28°C
Dew Point: 61°F , 16°C
Humidity: 51%
Barometer: 30.04 inHg , 1017.3 hPa
Clouds: Few Clouds
Visibility: 10 miles , 16 km
Cloud details: Few Clouds 3000 ft
Few Clouds 5500 ft
2018/07/22 22:53 KSJC 222253Z 30012KT 10SM FEW030 FEW055 27/16 A3004 RMK AO2 SLP172 FU FEW030 TCU DSNT E T02670156
 
KRHV - San Jose/Reid, California, USA
Distance from station: ENE 12mi, 19km
Updated: Sun, 22-Jul-2018 4:47pm PDT
Clear
Clear
 Wind from NW
Wind: NW 12 mph , 19 km/h
Temperature: 82°F , 28°C
Heat Index: 82°F , 28°C
Dew Point: 59°F , 15°C
Humidity: 45%
Barometer: 30.02 inHg , 1016.6 hPa
Clouds: Clear
Visibility: 10 miles , 16 km
2018/07/22 23:47 KRHV 222347Z 31010KT 10SM SKC 28/15 A3002
KPAO - Palo Alto, California, USA
Distance from station: NNW 14mi, 23km
Updated: Sun, 22-Jul-2018 2:47pm PDT
NOT Current
Few Clouds
Few Clouds
 Wind from N
Wind: N 15 mph , 24 km/h
Temperature: 75°F , 24°C
Dew Point: 57°F , 14°C
Humidity: 54%
Barometer: 30.08 inHg , 1018.6 hPa
Clouds: Few Clouds
Visibility: 10 miles , 16 km
Cloud details: Few Clouds 12000 ft
2018/07/22 21:47 KPAO 222147Z 35013KT 10SM FEW120 24/14 A3008
 
KSQL - San Carlos Airpo, California, USA
Distance from station: NW 21mi, 34km
Updated: Sun, 22-Jul-2018 3:47pm PDT
Few Clouds
Few Clouds
 Wind from W
Wind: W 12 mph , 19 km/h, Gust: 17 mph , 28 km/h
Temperature: 79°F , 26°C
Dew Point: 54°F , 12°C
Humidity: 42%
Barometer: 30.05 inHg , 1017.6 hPa
Clouds: Few Clouds
Visibility: 10 miles , 16 km
Cloud details: Few Clouds 12000 ft
2018/07/22 22:47 KSQL 222247Z 28010G15KT 10SM FEW120 26/12 A3005
KWVI - Watsonville, California, USA
Distance from station: SSE 27mi, 44km
Updated: Sun, 22-Jul-2018 3:53pm PDT
Clear
Clear
 Wind from SW
Wind: SW 13 mph , 20 km/h
Temperature: 70°F , 21°C
Dew Point: 57°F , 14°C
Humidity: 64%
Barometer: 30.09 inHg , 1019 hPa
Clouds: Clear
Visibility: 10 miles , 16 km
2018/07/22 22:53 KWVI 222253Z AUTO 23011KT 10SM CLR 21/14 A3009 RMK AO2 SLP188 T02110144
 
KHWD - Hayward, California, USA
Distance from station: N 28mi, 44km
Updated: Sun, 22-Jul-2018 3:54pm PDT
Clear
Clear
 Wind from WNW
Wind: WNW 17 mph , 28 km/h
Temperature: 75°F , 24°C
Dew Point: 57°F , 14°C
Humidity: 54%
Barometer: 30.06 inHg , 1017.9 hPa
Clouds: Clear
Visibility: 10 miles , 16 km
2018/07/22 22:54 KHWD 222254Z 30015KT 10SM CLR 24/14 A3006 RMK AO2 SLP189 T02440139
KSFO - San Francisco, California, USA
Distance from station: NW 30mi, 49km
Updated: Sun, 22-Jul-2018 3:56pm PDT
Few Clouds
Few Clouds
 Wind from WNW
Wind: WNW 21 mph , 33 km/h
Temperature: 72°F , 22°C
Dew Point: 55°F , 13°C
Humidity: 57%
Barometer: 30.06 inHg , 1017.9 hPa
Clouds: Few Clouds
Visibility: 10 miles , 16 km
Cloud details: Few Clouds 3500 ft
2018/07/22 22:56 KSFO 222256Z 29018KT 10SM FEW035 22/13 A3006 RMK AO2 SLP179 T02170133
 
KHAF - Half Moon Bay, California, USA
Distance from station: WNW 31mi, 50km
Updated: Sun, 22-Jul-2018 4:40pm PDT
Clear
Clear
 Wind from NW
Wind: NW 10 mph , 17 km/h
Temperature: 64°F , 18°C
Dew Point: 57°F , 14°C
Humidity: 78%
Barometer: 30.10 inHg , 1019.3 hPa
Clouds: Clear
Visibility: 7 miles , 11 km
2018/07/22 23:40 KHAF 222340Z AUTO 31009KT 7SM CLR 18/14 A3010 RMK AO2
KOAK - Oakland, California, USA
Distance from station: NNW 31mi, 50km
Updated: Sun, 22-Jul-2018 3:53pm PDT
Few Clouds
Few Clouds
 Wind from WNW
Wind: WNW 18 mph , 30 km/h
Temperature: 72°F , 22°C
Dew Point: 57°F , 14°C
Humidity: 61%
Barometer: 30.07 inHg , 1018.3 hPa
Clouds: Few Clouds
Visibility: 10 miles , 16 km
Cloud details: Few Clouds 1000 ft
Few Clouds 20000 ft
2018/07/22 22:53 KOAK 222253Z 29016KT 10SM FEW010 FEW200 22/14 A3007 RMK AO2 SLP182 T02170139
 
KLVK - Livermore, California, USA
Distance from station: NNE 31mi, 51km
Updated: Sun, 22-Jul-2018 3:53pm PDT
Clear
Clear
 Wind from W
Wind: W 18 mph , 30 km/h
Temperature: 86°F , 30°C
Dew Point: 52°F , 11°C
Humidity: 31%
Barometer: 30.02 inHg , 1016.6 hPa
Clouds: Clear
Visibility: 10 miles , 16 km
2018/07/22 22:53 KLVK 222253Z 28016KT 10SM CLR 30/11 A3002 RMK AO2 SLP161 T03000111
KCVH - Hollister Muni, California, USA
Distance from station: SE 42mi, 68km
Updated: Sun, 22-Jul-2018 4:35pm PDT
Clear
Clear
 Wind from WSW
Wind: WSW 22 mph , 35 km/h
Temperature: 77°F , 25°C
Dew Point: 55°F , 13°C
Humidity: 47%
Barometer: 30.03 inHg , 1016.9 hPa
Clouds: Clear
Visibility: 10 miles , 16 km
2018/07/22 23:35 KCVH 222335Z AUTO 24019KT 10SM CLR 25/13 A3003 RMK A01
 
KSNS - Salinas, California, USA
Distance from station: SSE 48mi, 77km
Updated: Sun, 22-Jul-2018 3:53pm PDT
Clear
Clear
 Wind from NW
Wind: NW 16 mph , 26 km/h
Temperature: 72°F , 22°C
Dew Point: 57°F , 14°C
Humidity: 61%
Barometer: 30.08 inHg , 1018.6 hPa
Clouds: Clear
Visibility: 10 miles , 16 km
2018/07/22 22:53 KSNS 222253Z 31014KT 10SM CLR 22/14 A3008 RMK AO2 SLP194 T02220144
KMRY - Monterey, California, USA
Distance from station: SSE 49mi, 78km
Updated: Sun, 22-Jul-2018 3:54pm PDT
Clear
Clear
 Wind from WNW
Wind: WNW 12 mph , 19 km/h
Temperature: 70°F , 21°C
Dew Point: 57°F , 14°C
Humidity: 64%
Barometer: 30.10 inHg , 1019.3 hPa
Clouds: Clear
Visibility: 10 miles , 16 km
2018/07/22 22:54 KMRY 222254Z 30010KT 10SM CLR 21/14 A3010 RMK AO2 SLP202 T02110144
 
KCCR - Concord, California, USA
Distance from station: N 50mi, 81km
Updated: Sun, 22-Jul-2018 3:53pm PDT
Clear
Clear
 Wind from WSW
Wind: WSW 14 mph , 22 km/h
Temperature: 88°F , 31°C
Dew Point: 54°F , 12°C
Humidity: 31%
Barometer: 30.02 inHg , 1016.6 hPa
Clouds: Clear
Visibility: 10 miles , 16 km
2018/07/22 22:53 KCCR 222253Z 25012KT 10SM CLR 31/12 A3002 RMK AO2 SLP152 T03110122

Metar display script from Saratoga-Weather.org